Time;durP1;ratioP1;P1;durP2;ratioP2;P2;SDS_P1;SDS_P2;PMS_P1;PMS_P2;Temp;Humidity;BMP_temperature;BMP_pressure;BME280_temperature;BME280_humidity;BME280_pressure;Samples;Min_cycle;Max_cycle;Signal;HPM_P1;HPM_P2
2022/04/06 00:01:17;;;;;;;15.33;8.10;;;9.90;99.90;;;;;;5035419;28;20225;-68
2022/04/06 00:03:43;;;;;;;17.53;8.77;;;9.90;99.90;;;;;;5035369;28;20201;-68
2022/04/06 00:06:09;;;;;;;12.20;7.83;;;9.90;99.90;;;;;;5017408;28;20167;-68
2022/04/06 00:08:35;;;;;;;15.20;7.57;;;10.00;99.90;;;;;;5035443;28;20425;-68
2022/04/06 00:11:00;;;;;;;13.93;7.20;;;10.00;99.90;;;;;;5017258;28;21052;-68
2022/04/06 00:13:26;;;;;;;14.60;7.60;;;10.00;99.90;;;;;;5036005;28;20197;-68
2022/04/06 00:15:51;;;;;;;9.70;7.07;;;10.00;99.90;;;;;;5035968;28;20199;-69
2022/04/06 00:18:17;;;;;;;11.53;6.53;;;10.00;99.90;;;;;;5035997;28;20171;-68
2022/04/06 00:20:42;;;;;;;11.10;7.07;;;9.90;99.90;;;;;;5035137;28;20256;-69
2022/04/06 00:23:09;;;;;;;10.00;6.97;;;9.90;99.90;;;;;;5035404;28;21500;-68
2022/04/06 00:25:34;;;;;;;17.50;7.83;;;9.90;99.90;;;;;;5035325;28;20167;-68
2022/04/06 00:28:00;;;;;;;14.57;7.60;;;9.90;99.90;;;;;;5035578;28;20593;-69
2022/04/06 00:30:25;;;;;;;10.37;7.10;;;9.90;99.90;;;;;;5034538;28;20749;-67
2022/04/06 00:32:51;;;;;;;8.90;6.43;;;9.90;99.90;;;;;;5035204;28;20182;-69
2022/04/06 00:35:28;;;;;;;14.57;7.50;;;9.90;99.90;;;;;;5033459;28;20220;-68
2022/04/06 00:37:55;;;;;;;14.37;7.27;;;9.90;99.90;;;;;;5016738;28;20653;-68
2022/04/06 00:40:22;;;;;;;12.70;7.23;;;9.90;99.90;;;;;;5034233;28;20940;-67
2022/04/06 00:42:48;;;;;;;13.53;7.07;;;9.90;99.90;;;;;;5034404;28;20418;-66
2022/04/06 00:45:14;;;;;;;16.43;8.10;;;10.00;99.90;;;;;;5034079;28;20491;-68
2022/04/06 00:47:39;;;;;;;11.63;6.70;;;9.90;99.90;;;;;;5034901;28;20228;-68
2022/04/06 00:50:05;;;;;;;9.30;6.33;;;10.00;99.90;;;;;;5034239;28;21004;-68
2022/04/06 00:52:31;;;;;;;10.53;6.47;;;10.00;99.90;;;;;;5034593;28;20178;-68
2022/04/06 00:54:57;;;;;;;13.43;7.10;;;10.00;99.90;;;;;;5034782;28;20491;-67
2022/04/06 00:57:23;;;;;;;12.20;6.90;;;9.90;99.90;;;;;;5033955;28;20189;-68
2022/04/06 00:59:50;;;;;;;12.53;7.20;;;10.00;99.90;;;;;;5034125;28;20417;-67
2022/04/06 01:02:16;;;;;;;10.13;7.13;;;9.90;99.90;;;;;;5034140;28;20171;-68
2022/04/06 01:04:42;;;;;;;9.37;7.23;;;9.90;99.90;;;;;;5033923;28;20452;-68
2022/04/06 01:07:08;;;;;;;12.60;7.60;;;9.90;99.90;;;;;;5034754;28;20420;-68
2022/04/06 01:09:34;;;;;;;14.10;7.70;;;9.80;99.90;;;;;;5033941;28;20648;-68
2022/04/06 01:11:59;;;;;;;14.33;7.30;;;9.90;99.90;;;;;;5034937;28;20416;-67
2022/04/06 01:14:25;;;;;;;14.10;7.07;;;9.90;99.90;;;;;;5033989;28;20626;-68
2022/04/06 01:17:02;;;;;;;14.93;7.10;;;9.80;99.90;;;;;;5033655;28;20177;-68
2022/04/06 01:19:32;;;;;;;12.57;7.00;;;9.80;99.90;;;;;;5033880;28;20201;-68
2022/04/06 01:21:58;;;;;;;14.30;6.90;;;9.90;99.90;;;;;;5033909;28;20413;-67
2022/04/06 01:24:24;;;;;;;10.33;7.00;;;9.80;99.90;;;;;;5033728;28;20436;-67
2022/04/06 01:26:50;;;;;;;9.50;6.83;;;9.90;99.90;;;;;;5034054;28;20483;-69
2022/04/06 01:29:15;;;;;;;14.90;7.30;;;9.80;99.90;;;;;;5033523;28;20171;-68
2022/04/06 01:31:41;;;;;;;11.53;7.37;;;9.80;99.90;;;;;;5033708;28;20206;-68
2022/04/06 01:34:06;;;;;;;9.67;7.10;;;9.90;99.90;;;;;;5033776;28;20226;-69
2022/04/06 01:36:32;;;;;;;10.20;6.80;;;9.80;99.90;;;;;;5033488;28;20175;-68
2022/04/06 01:38:57;;;;;;;16.83;6.63;;;9.80;99.90;;;;;;5033864;28;20175;-68
2022/04/06 01:41:28;;;;;;;13.13;7.00;;;9.80;99.90;;;;;;5033282;28;20258;-69
2022/04/06 01:43:55;;;;;;;14.70;6.63;;;9.90;99.90;;;;;;5034033;28;20278;-68
2022/04/06 01:46:21;;;;;;;12.80;7.27;;;9.90;99.90;;;;;;5033685;28;20489;-68
2022/04/06 01:54:14;;;;;;;9.80;6.20;;;9.90;99.90;;;;;;5034302;28;20500;-68
2022/04/06 01:56:39;;;;;;;14.77;6.40;;;9.90;99.90;;;;;;5033412;28;20409;-67
2022/04/06 01:59:06;;;;;;;9.50;6.30;;;9.80;99.90;;;;;;5033461;28;20402;-68
2022/04/06 02:01:31;;;;;;;10.70;5.87;;;9.90;99.90;;;;;;5016409;28;20176;-68
2022/04/06 02:03:57;;;;;;;13.20;5.73;;;9.90;99.90;;;;;;5033295;28;20452;-68
2022/04/06 02:06:23;;;;;;;12.20;5.80;;;9.90;99.90;;;;;;5033733;28;20659;-67
2022/04/06 02:08:49;;;;;;;6.50;5.27;;;9.90;99.90;;;;;;5033267;28;20175;-69
2022/04/06 02:11:14;;;;;;;8.77;5.40;;;9.90;99.90;;;;;;5032686;28;20757;-68
2022/04/06 02:13:39;;;;;;;7.80;4.97;;;9.90;99.90;;;;;;5032636;28;20433;-68
2022/04/06 02:16:05;;;;;;;9.03;5.90;;;9.90;99.90;;;;;;5032168;28;20659;-68
2022/04/06 02:18:31;;;;;;;7.17;5.20;;;9.80;99.90;;;;;;5015220;28;20188;-67
2022/04/06 02:20:57;;;;;;;10.10;5.80;;;9.90;99.90;;;;;;5014424;28;20175;-68
2022/04/06 02:23:22;;;;;;;11.80;5.90;;;9.80;99.90;;;;;;5032716;28;20699;-68
2022/04/06 02:25:48;;;;;;;12.83;5.30;;;9.80;99.90;;;;;;5032504;28;20418;-68
2022/04/06 02:28:13;;;;;;;12.30;5.73;;;9.80;99.90;;;;;;5032768;28;20186;-67
2022/04/06 02:30:39;;;;;;;8.83;5.03;;;9.80;99.90;;;;;;5014230;28;20203;-68
2022/04/06 02:33:04;;;;;;;8.47;5.47;;;9.80;99.90;;;;;;5032722;28;20232;-68
2022/04/06 02:35:30;;;;;;;5.90;5.27;;;9.70;99.90;;;;;;5015155;28;20182;-67
2022/04/06 02:37:55;;;;;;;12.13;4.93;;;9.70;99.90;;;;;;5032435;28;20210;-67
2022/04/06 02:40:21;;;;;;;10.13;5.07;;;9.70;99.90;;;;;;5032464;28;20622;-69
2022/04/06 02:42:46;;;;;;;9.10;4.90;;;9.70;99.90;;;;;;5032665;28;20570;-68
2022/04/06 02:45:13;;;;;;;9.60;4.90;;;9.70;99.90;;;;;;5032718;28;20277;-68
2022/04/06 02:47:38;;;;;;;9.40;4.70;;;9.80;99.90;;;;;;5014692;28;20202;-68
2022/04/06 02:50:05;;;;;;;7.80;4.63;;;9.80;99.90;;;;;;5032530;28;20480;-67
2022/04/06 02:52:31;;;;;;;9.93;5.80;;;9.80;99.90;;;;;;5034984;28;20179;-66
2022/04/06 02:54:56;;;;;;;7.67;4.90;;;9.70;99.90;;;;;;5049212;28;20436;-68
2022/04/06 02:57:23;;;;;;;7.47;4.83;;;9.80;99.90;;;;;;5048731;28;20233;-67
2022/04/06 02:59:48;;;;;;;15.40;5.00;;;9.80;99.90;;;;;;5030872;28;20412;-67
2022/04/06 03:02:14;;;;;;;10.20;4.77;;;9.80;99.90;;;;;;5049711;28;20213;-68
2022/04/06 03:04:39;;;;;;;6.40;4.10;;;9.70;99.90;;;;;;5049439;28;20217;-68
2022/04/06 03:07:05;;;;;;;8.27;4.70;;;9.70;99.90;;;;;;5046369;28;20182;-69
2022/04/06 03:09:30;;;;;;;7.43;4.57;;;9.80;99.90;;;;;;5014630;28;20538;-68
2022/04/06 03:11:56;;;;;;;7.90;5.83;;;9.80;99.90;;;;;;5032861;28;20202;-69
2022/04/06 03:14:21;;;;;;;10.83;5.50;;;9.80;99.90;;;;;;5014900;28;20187;-69
2022/04/06 03:16:47;;;;;;;6.77;4.13;;;9.80;99.90;;;;;;5033133;28;20174;-68
2022/04/06 03:19:12;;;;;;;7.53;4.20;;;9.70;99.90;;;;;;5031517;28;20170;-69
2022/04/06 03:21:38;;;;;;;6.07;5.00;;;9.80;99.90;;;;;;5032431;28;20214;-68
2022/04/06 03:24:04;;;;;;;8.03;5.27;;;9.80;99.90;;;;;;5033027;28;20199;-69
2022/04/06 03:26:29;;;;;;;5.53;4.40;;;9.80;99.90;;;;;;5015723;28;20232;-69
2022/04/06 03:28:55;;;;;;;7.73;5.10;;;9.80;99.90;;;;;;5036231;28;20560;-68
2022/04/06 03:31:20;;;;;;;9.73;4.67;;;9.80;99.90;;;;;;5036158;28;20702;-68
2022/04/06 03:33:46;;;;;;;10.13;5.53;;;9.80;99.90;;;;;;5035978;28;20191;-67
2022/04/06 03:36:11;;;;;;;9.33;5.03;;;9.80;99.90;;;;;;5034633;28;20175;-68
2022/04/06 03:38:37;;;;;;;8.13;5.27;;;9.80;99.90;;;;;;5035589;28;20174;-70
2022/04/06 03:41:02;;;;;;;6.30;4.67;;;9.70;99.90;;;;;;5035276;28;20530;-69
2022/04/06 03:43:29;;;;;;;10.33;6.00;;;9.80;99.90;;;;;;5034959;28;20431;-67
2022/04/06 03:45:54;;;;;;;8.97;5.43;;;9.80;99.90;;;;;;5035714;28;20416;-68
2022/04/06 03:48:22;;;;;;;10.63;5.47;;;9.80;99.90;;;;;;5036159;28;20649;-68
2022/04/06 03:50:49;;;;;;;6.83;5.00;;;9.70;99.90;;;;;;5035819;28;20199;-69
2022/04/06 03:53:15;;;;;;;12.43;5.47;;;9.80;99.90;;;;;;5018355;28;20430;-67
2022/04/06 03:55:40;;;;;;;8.33;5.70;;;9.70;99.90;;;;;;5040976;28;20460;-67
2022/04/06 03:58:06;;;;;;;10.23;6.20;;;9.70;99.90;;;;;;5035825;28;20237;-67
2022/04/06 04:00:32;;;;;;;16.03;6.30;;;9.70;99.90;;;;;;5017519;28;20638;-68
2022/04/06 04:02:57;;;;;;;11.47;5.80;;;9.70;99.90;;;;;;5034850;28;20527;-68
2022/04/06 04:05:23;;;;;;;7.33;4.90;;;9.70;99.90;;;;;;5050429;22;20276;-71
2022/04/06 04:07:48;;;;;;;7.57;5.40;;;9.70;99.90;;;;;;5031362;28;20176;-70
2022/04/06 04:10:19;;;;;;;12.60;5.57;;;9.60;99.90;;;;;;5028940;28;20194;-70
2022/04/06 04:12:45;;;;;;;8.47;5.93;;;9.60;99.90;;;;;;5025617;28;20163;-70
2022/04/06 04:15:10;;;;;;;6.80;5.60;;;9.70;99.90;;;;;;5023482;28;20477;-70
2022/04/06 04:17:36;;;;;;;10.53;5.50;;;9.70;99.90;;;;;;5024313;28;20163;-70
2022/04/06 04:20:02;;;;;;;9.87;5.77;;;9.70;99.90;;;;;;5024500;28;20170;-70
2022/04/06 04:22:29;;;;;;;8.07;5.50;;;9.70;99.90;;;;;;5002798;28;20178;-70
2022/04/06 04:24:54;;;;;;;9.53;5.63;;;9.70;99.90;;;;;;5023960;28;20459;-70
2022/04/06 04:27:20;;;;;;;11.67;5.87;;;9.60;99.90;;;;;;5026760;28;20421;-70
2022/04/06 04:29:46;;;;;;;13.87;6.10;;;9.60;99.90;;;;;;5016805;28;20175;-70
2022/04/06 04:32:11;;;;;;;9.33;5.87;;;9.60;99.90;;;;;;4995457;28;20593;-70
2022/04/06 04:34:37;;;;;;;7.03;4.80;;;9.60;99.90;;;;;;5013972;28;20192;-70
2022/04/06 04:37:03;;;;;;;7.40;5.50;;;9.50;99.90;;;;;;5014001;28;20226;-71
2022/04/06 04:39:29;;;;;;;8.53;4.83;;;9.40;99.90;;;;;;4996066;28;20946;-70
2022/04/06 04:41:54;;;;;;;7.37;4.70;;;9.40;99.90;;;;;;5013318;28;20240;-71
2022/04/06 04:44:20;;;;;;;5.03;4.17;;;9.50;99.90;;;;;;5013747;28;20190;-70
2022/04/06 04:46:45;;;;;;;5.30;4.00;;;9.50;99.90;;;;;;4996613;28;20189;-70
2022/04/06 04:49:11;;;;;;;6.87;3.80;;;9.50;99.90;;;;;;5013792;28;20171;-70
2022/04/06 04:51:37;;;;;;;7.27;4.30;;;9.60;99.90;;;;;;5012878;28;20200;-69
2022/04/06 04:54:03;;;;;;;5.70;4.70;;;9.60;99.90;;;;;;5014136;28;20194;-70
2022/04/06 04:56:30;;;;;;;9.63;4.43;;;9.50;99.90;;;;;;5013829;28;20171;-69
2022/04/06 04:58:56;;;;;;;7.97;4.70;;;9.50;99.90;;;;;;5013090;28;20446;-70
2022/04/06 05:01:22;;;;;;;4.50;3.70;;;9.50;99.90;;;;;;4989692;28;20506;-70
2022/04/06 05:03:48;;;;;;;11.83;4.27;;;9.50;99.90;;;;;;5011990;28;20510;-70
2022/04/06 05:06:14;;;;;;;7.33;5.03;;;9.50;99.90;;;;;;5001969;28;20685;-70
2022/04/06 05:08:40;;;;;;;5.37;3.70;;;9.60;99.90;;;;;;4996271;28;20465;-69
2022/04/06 05:11:05;;;;;;;4.63;3.53;;;9.60;99.90;;;;;;5011469;28;20235;-69
2022/04/06 05:13:31;;;;;;;7.60;3.90;;;9.50;99.90;;;;;;5010890;28;20286;-68
2022/04/06 05:15:57;;;;;;;4.50;3.73;;;9.50;99.90;;;;;;5011521;28;20318;-70
2022/04/06 05:18:22;;;;;;;7.67;3.60;;;9.60;99.90;;;;;;5012563;28;20205;-70
2022/04/06 05:20:48;;;;;;;7.40;4.00;;;9.50;99.90;;;;;;5012642;28;20449;-71
2022/04/06 05:23:15;;;;;;;7.37;4.17;;;9.60;99.90;;;;;;5012786;28;20202;-70
2022/04/06 05:25:40;;;;;;;4.10;3.70;;;9.60;99.90;;;;;;5012427;28;20231;-69
2022/04/06 05:28:06;;;;;;;9.03;4.13;;;9.60;99.90;;;;;;5012108;28;20876;-69
2022/04/06 05:30:33;;;;;;;4.63;3.70;;;9.60;99.90;;;;;;5010832;28;20231;-70
2022/04/06 05:32:59;;;;;;;8.97;4.13;;;9.60;99.90;;;;;;5012681;28;20252;-70
2022/04/06 05:35:26;;;;;;;10.20;4.50;;;9.60;99.90;;;;;;5012255;28;20472;-70
2022/04/06 05:37:54;;;;;;;7.90;4.90;;;9.60;99.90;;;;;;5012114;28;20179;-70
2022/04/06 05:40:19;;;;;;;6.77;4.20;;;9.60;99.90;;;;;;5006225;28;20647;-69
2022/04/06 05:42:48;;;;;;;6.00;4.83;;;9.60;99.90;;;;;;5006572;28;20449;-71
2022/04/06 05:45:26;;;;;;;5.27;4.63;;;9.60;99.90;;;;;;5008897;28;20617;-70
2022/04/06 05:47:55;;;;;;;8.50;4.60;;;9.60;99.90;;;;;;4996026;28;20425;-70
2022/04/06 05:50:20;;;;;;;8.20;5.03;;;9.60;99.90;;;;;;5008177;28;20516;-70
2022/04/06 05:52:46;;;;;;;7.50;4.83;;;9.60;99.90;;;;;;5008859;28;21242;-69
2022/04/06 05:55:11;;;;;;;10.53;6.23;;;9.60;99.90;;;;;;5006673;28;20210;-70
2022/04/06 05:57:38;;;;;;;9.70;4.93;;;9.60;99.90;;;;;;5006521;28;20537;-70
2022/04/06 06:00:06;;;;;;;5.10;4.20;;;9.70;99.90;;;;;;5006765;28;20175;-70
2022/04/06 06:02:32;;;;;;;5.30;4.30;;;9.70;99.90;;;;;;5007035;28;20426;-70
2022/04/06 06:05:12;;;;;;;6.70;4.90;;;9.60;99.90;;;;;;5006168;28;20461;-71
2022/04/06 06:07:43;;;;;;;14.93;5.90;;;9.60;99.90;;;;;;4974469;28;20453;-71
2022/04/06 06:10:14;;;;;;;8.23;4.43;;;9.60;99.90;;;;;;5007859;28;20446;-71
2022/04/06 06:12:43;;;;;;;5.00;4.40;;;9.70;99.90;;;;;;5009099;28;20419;-71
2022/04/06 06:15:19;;;;;;;6.60;4.80;;;9.70;99.90;;;;;;5002277;28;20462;-71
2022/04/06 06:17:45;;;;;;;6.73;4.73;;;9.70;99.90;;;;;;4999966;28;20418;-70
2022/04/06 06:20:10;;;;;;;6.50;4.90;;;9.70;99.90;;;;;;5009619;28;21002;-71
2022/04/06 06:22:36;;;;;;;6.20;4.73;;;9.70;99.90;;;;;;5010268;28;20184;-71
2022/04/06 06:25:02;;;;;;;6.37;4.43;;;9.60;99.90;;;;;;5010030;28;20250;-71
2022/04/06 06:27:28;;;;;;;5.73;4.83;;;9.70;99.90;;;;;;5010364;28;20172;-70
2022/04/06 06:29:54;;;;;;;6.40;4.10;;;9.70;99.90;;;;;;5009744;28;20406;-70
2022/04/06 06:32:19;;;;;;;5.33;4.30;;;9.70;99.90;;;;;;5011880;28;20644;-69
2022/04/06 06:34:45;;;;;;;6.53;4.93;;;9.70;99.90;;;;;;5011591;28;20199;-70
2022/04/06 06:37:11;;;;;;;5.53;4.50;;;9.80;99.90;;;;;;5011979;28;20214;-70
2022/04/06 06:39:37;;;;;;;10.13;4.20;;;9.70;99.90;;;;;;5011788;28;20186;-71
2022/04/06 06:42:04;;;;;;;10.40;4.87;;;9.80;99.90;;;;;;5011600;28;20411;-70
2022/04/06 06:44:30;;;;;;;7.53;4.00;;;9.70;99.90;;;;;;5011872;28;20495;-70
2022/04/06 06:46:55;;;;;;;5.80;4.30;;;9.70;99.90;;;;;;5011913;28;20906;-70
2022/04/06 06:49:21;;;;;;;6.97;4.93;;;9.70;99.90;;;;;;5011496;28;20647;-70
2022/04/06 06:51:46;;;;;;;7.50;4.47;;;9.70;99.90;;;;;;4993402;28;20517;-70
2022/04/06 06:54:12;;;;;;;7.53;4.27;;;9.70;99.90;;;;;;5011699;28;20570;-70
2022/04/06 06:56:37;;;;;;;10.43;4.53;;;9.70;99.90;;;;;;5011621;28;20175;-70
2022/04/06 06:59:03;;;;;;;5.40;3.87;;;9.70;99.90;;;;;;5011786;28;20215;-70
2022/04/06 07:01:28;;;;;;;6.23;3.80;;;9.70;99.90;;;;;;5011434;28;20175;-70
2022/04/06 07:03:54;;;;;;;11.00;3.90;;;9.60;99.90;;;;;;5011752;28;20294;-71
2022/04/06 07:06:19;;;;;;;6.90;3.90;;;9.70;99.90;;;;;;5012347;28;20168;-70
2022/04/06 07:08:45;;;;;;;7.80;3.53;;;9.70;99.90;;;;;;5011897;28;20266;-70
2022/04/06 07:11:10;;;;;;;8.83;4.03;;;9.70;99.90;;;;;;5011315;28;20235;-71
2022/04/06 07:13:36;;;;;;;4.50;3.70;;;9.70;99.90;;;;;;5011259;28;20206;-71
2022/04/06 07:16:03;;;;;;;9.07;4.53;;;9.80;99.90;;;;;;5011647;28;20202;-71
2022/04/06 07:18:29;;;;;;;6.37;3.90;;;9.70;99.90;;;;;;5011519;28;20172;-70
2022/04/06 07:20:55;;;;;;;5.87;4.07;;;9.70;99.90;;;;;;5011253;28;20415;-70
2022/04/06 07:23:20;;;;;;;5.70;3.40;;;9.80;99.90;;;;;;5011507;28;20441;-71
2022/04/06 07:25:46;;;;;;;5.00;4.00;;;9.80;99.90;;;;;;5011512;28;20234;-70
2022/04/06 07:28:11;;;;;;;11.57;4.30;;;9.80;99.90;;;;;;5011089;28;20648;-69
2022/04/06 07:30:37;;;;;;;5.73;4.50;;;9.80;99.90;;;;;;5011201;28;20222;-71
2022/04/06 07:33:02;;;;;;;3.73;3.43;;;9.80;99.90;;;;;;5011659;28;20229;-71
2022/04/06 07:35:28;;;;;;;6.40;3.93;;;9.80;99.90;;;;;;5011591;28;20199;-71
2022/04/06 07:37:54;;;;;;;7.67;4.43;;;9.80;99.90;;;;;;5011636;28;20692;-70
2022/04/06 07:40:23;;;;;;;9.60;5.00;;;9.80;99.90;;;;;;5011394;28;20722;-71
2022/04/06 07:42:51;;;;;;;4.73;3.70;;;9.90;99.90;;;;;;5011382;28;20640;-71
2022/04/06 07:45:19;;;;;;;5.70;4.00;;;9.90;99.90;;;;;;5011706;28;20430;-71
2022/04/06 07:47:49;;;;;;;12.27;4.37;;;9.90;99.90;;;;;;5011645;28;20418;-71
2022/04/06 07:50:16;;;;;;;8.67;3.90;;;9.90;99.90;;;;;;5011122;28;20450;-71
2022/04/06 07:52:43;;;;;;;7.50;4.03;;;9.80;99.90;;;;;;5011545;28;20434;-70
2022/04/06 07:55:09;;;;;;;6.67;4.10;;;9.80;99.90;;;;;;5011400;28;20419;-69
2022/04/06 07:57:36;;;;;;;5.90;4.00;;;9.80;99.90;;;;;;5011338;28;20545;-70
2022/04/06 08:00:06;;;;;;;8.27;4.40;;;9.80;99.90;;;;;;5010934;28;20414;-70
2022/04/06 08:02:32;;;;;;;5.93;3.73;;;9.80;99.90;;;;;;5011426;28;20506;-70
2022/04/06 08:04:58;;;;;;;5.07;3.60;;;9.80;99.90;;;;;;5011102;28;20496;-72
2022/04/06 08:07:23;;;;;;;5.83;4.20;;;9.80;99.90;;;;;;5011272;28;20415;-70
2022/04/06 08:09:49;;;;;;;5.60;3.90;;;9.70;99.90;;;;;;5010674;28;20172;-69
2022/04/06 08:12:15;;;;;;;7.27;4.30;;;9.70;99.90;;;;;;5011229;28;20275;-69
2022/04/06 08:14:40;;;;;;;5.33;4.80;;;9.80;99.90;;;;;;5013548;28;20188;-70
2022/04/06 08:17:06;;;;;;;7.97;4.27;;;9.90;99.90;;;;;;5014669;28;20210;-70
2022/04/06 08:19:31;;;;;;;6.90;4.73;;;9.90;99.90;;;;;;5013965;28;20180;-70
2022/04/06 08:21:57;;;;;;;7.23;4.17;;;9.90;99.90;;;;;;5014450;28;20199;-70
2022/04/06 08:24:23;;;;;;;5.90;4.13;;;9.90;99.90;;;;;;5014180;28;20622;-70
2022/04/06 08:26:48;;;;;;;5.80;4.73;;;9.90;99.90;;;;;;5014449;28;20183;-70
2022/04/06 08:29:13;;;;;;;4.87;3.57;;;9.90;99.90;;;;;;5013736;28;20183;-70
2022/04/06 08:31:39;;;;;;;4.33;3.60;;;9.90;99.90;;;;;;4996685;28;20191;-70
2022/04/06 08:34:06;;;;;;;4.50;3.30;;;9.80;99.90;;;;;;5014064;28;20202;-71
2022/04/06 08:36:34;;;;;;;4.10;3.70;;;9.80;99.90;;;;;;5014260;28;20167;-70
2022/04/06 08:39:01;;;;;;;4.20;3.00;;;9.90;99.90;;;;;;5014149;28;20418;-70
2022/04/06 08:41:28;;;;;;;5.73;2.93;;;9.90;99.90;;;;;;5013836;28;20426;-70
2022/04/06 08:43:55;;;;;;;6.50;3.30;;;9.80;99.90;;;;;;5013839;28;20435;-70
2022/04/06 08:46:21;;;;;;;3.03;2.70;;;9.80;99.90;;;;;;5013814;28;20509;-70
2022/04/06 08:48:53;;;;;;;3.80;2.80;;;9.90;99.90;;;;;;5013944;28;20493;-70
2022/04/06 08:51:20;;;;;;;4.73;3.03;;;9.90;99.90;;;;;;5013333;28;20214;-70
2022/04/06 08:53:46;;;;;;;7.10;3.13;;;9.90;99.90;;;;;;5013429;28;20434;-70
2022/04/06 08:56:14;;;;;;;7.80;2.80;;;9.80;99.90;;;;;;5013695;28;20461;-71
2022/04/06 08:58:41;;;;;;;3.77;2.77;;;9.90;99.90;;;;;;5014028;28;20421;-71
2022/04/06 09:01:07;;;;;;;7.90;3.17;;;9.90;99.90;;;;;;5013541;28;20421;-69
2022/04/06 09:03:34;;;;;;;4.00;2.60;;;9.90;99.90;;;;;;5013613;28;20778;-71
2022/04/06 09:06:05;;;;;;;3.07;2.80;;;10.00;99.90;;;;;;5013741;28;20419;-70
2022/04/06 09:08:36;;;;;;;3.43;2.17;;;10.00;99.90;;;;;;5014198;28;20442;-71
2022/04/06 09:11:10;;;;;;;3.77;2.53;;;10.00;99.90;;;;;;5013746;28;20490;-71
2022/04/06 09:13:36;;;;;;;2.50;2.10;;;10.00;99.90;;;;;;5014130;28;20485;-71
2022/04/06 09:16:04;;;;;;;2.33;2.03;;;10.00;99.90;;;;;;5013973;28;20422;-70
2022/04/06 09:18:38;;;;;;;4.77;2.70;;;10.10;99.90;;;;;;5014162;28;20410;-70
2022/04/06 09:21:04;;;;;;;5.10;3.40;;;10.10;99.90;;;;;;5013631;28;20418;-70
2022/04/06 09:23:31;;;;;;;4.57;2.80;;;10.20;99.90;;;;;;5013955;28;20407;-71
2022/04/06 09:26:05;;;;;;;3.33;2.47;;;10.30;99.90;;;;;;5012275;28;20471;-71
2022/04/06 09:28:31;;;;;;;3.60;2.70;;;10.50;99.90;;;;;;5013325;28;20406;-71
2022/04/06 09:30:57;;;;;;;5.47;2.53;;;10.50;99.90;;;;;;5013029;28;20977;-71
2022/04/06 09:33:26;;;;;;;2.73;1.97;;;10.60;99.90;;;;;;5013203;28;20407;-70
2022/04/06 09:35:52;;;;;;;5.87;3.00;;;10.60;99.90;;;;;;5012638;28;20203;-70
2022/04/06 09:38:25;;;;;;;2.63;2.37;;;10.60;99.90;;;;;;4995578;28;20434;-70
2022/04/06 09:41:00;;;;;;;3.47;2.40;;;10.70;99.90;;;;;;5013740;28;20168;-70
2022/04/06 09:43:34;;;;;;;4.03;2.03;;;10.70;99.90;;;;;;5013670;28;20546;-70
2022/04/06 09:49:08;;;;;;;6.70;3.07;;;10.90;99.90;;;;;;5013251;28;20386;-70
2022/04/06 09:51:34;;;;;;;5.40;2.50;;;10.90;99.90;;;;;;5013824;28;20454;-71
2022/04/06 09:54:03;;;;;;;5.40;3.20;;;11.00;99.90;;;;;;5013362;28;20492;-71
2022/04/06 09:56:30;;;;;;;4.20;2.33;;;11.00;99.90;;;;;;5013276;28;20554;-71
2022/04/06 09:58:57;;;;;;;5.13;2.57;;;10.90;99.90;;;;;;5013656;28;20981;-72
2022/04/06 10:01:32;;;;;;;4.80;2.63;;;10.90;99.90;;;;;;5013977;28;20903;-71
2022/04/06 10:04:02;;;;;;;6.53;2.80;;;10.80;99.90;;;;;;5037056;22;20968;-69
2022/04/06 10:06:40;;;;;;;4.30;3.43;;;10.80;99.90;;;;;;5024583;28;20800;-68
2022/04/06 10:09:10;;;;;;;3.40;2.00;;;10.80;99.90;;;;;;5014976;28;20801;-68
2022/04/06 10:11:38;;;;;;;6.47;2.60;;;10.80;99.90;;;;;;5014698;28;20533;-67
2022/04/06 10:14:08;;;;;;;3.08;2.58;;;10.80;99.90;;;;;;5013877;28;20413;-68
2022/04/06 10:16:36;;;;;;;7.70;3.00;;;10.80;99.90;;;;;;5014798;28;20167;-68
2022/04/06 10:19:03;;;;;;;4.53;2.90;;;10.80;99.90;;;;;;5014596;28;20485;-67
2022/04/06 10:21:55;;;;;;;5.85;2.60;;;10.90;99.90;;;;;;5014453;28;20825;-69
2022/04/06 10:24:36;;;;;;;2.97;2.67;;;10.90;99.90;;;;;;4997822;28;20195;-68
2022/04/06 10:27:25;;;;;;;3.13;2.80;;;10.80;99.90;;;;;;5015668;28;20390;-69
2022/04/06 10:30:10;;;;;;;2.90;2.50;;;10.70;99.90;;;;;;5015578;28;20418;-70
2022/04/06 10:32:38;;;;;;;3.30;3.00;;;10.70;99.90;;;;;;5015578;28;20493;-69
2022/04/06 10:35:21;;;;;;;4.53;3.60;;;10.70;99.90;;;;;;5018001;28;20761;-69
2022/04/06 10:37:56;;;;;;;3.10;2.50;;;10.70;99.90;;;;;;4997651;28;20783;-68
2022/04/06 10:40:23;;;;;;;5.27;2.43;;;10.80;99.90;;;;;;5015432;28;20401;-68
2022/04/06 10:42:49;;;;;;;3.10;2.80;;;10.80;99.90;;;;;;5016039;28;20498;-68
2022/04/06 10:45:27;;;;;;;7.13;2.60;;;10.70;99.90;;;;;;5016437;28;20432;-69
2022/04/06 10:48:28;;;;;;;2.67;2.40;;;10.70;99.90;;;;;;5015007;28;20776;-69
2022/04/06 10:51:28;;;;;;;4.57;2.50;;;10.70;99.90;;;;;;4934357;29;20462;-69
2022/04/06 10:53:54;;;;;;;3.30;3.00;;;10.80;99.90;;;;;;4934914;29;20402;-69
2022/04/06 10:56:22;;;;;;;5.67;3.00;;;10.80;99.90;;;;;;4934637;29;20429;-69
2022/04/06 10:58:56;;;;;;;5.40;2.53;;;10.90;99.90;;;;;;4934409;29;20903;-67
2022/04/06 11:01:32;;;;;;;5.97;4.27;;;11.00;99.90;;;;;;4934537;29;20438;-68
2022/04/06 11:03:59;;;;;;;4.03;3.63;;;11.00;99.90;;;;;;4935174;29;20424;-69
2022/04/06 11:06:48;;;;;;;8.73;4.43;;;11.00;99.90;;;;;;4935369;29;20944;-69
2022/04/06 11:12:13;;;;;;;4.30;3.17;;;10.90;99.90;;;;;;4935274;28;20609;-67
2022/04/06 11:14:40;;;;;;;6.80;3.47;;;10.90;99.90;;;;;;4951720;28;20492;-67
2022/04/06 11:17:42;;;;;;;3.93;3.37;;;11.00;99.90;;;;;;4952425;29;20917;-67
2022/04/06 11:20:19;;;;;;;6.43;4.13;;;11.00;99.90;;;;;;4948725;28;20476;-67
2022/04/06 11:22:53;;;;;;;5.20;3.00;;;11.00;99.90;;;;;;4928019;29;20437;-66
2022/04/06 11:25:21;;;;;;;5.30;3.50;;;11.10;99.90;;;;;;4993625;28;20540;-67
2022/04/06 11:27:48;;;;;;;8.50;4.63;;;11.00;99.90;;;;;;5024438;28;21076;-68
2022/04/06 11:30:26;;;;;;;3.57;3.27;;;10.90;99.90;;;;;;5027806;28;20484;-68
2022/04/06 11:32:54;;;;;;;7.73;4.20;;;10.90;99.90;;;;;;5028736;28;20421;-68
2022/04/06 11:35:20;;;;;;;3.53;3.23;;;10.90;99.90;;;;;;5028072;28;20439;-68
2022/04/06 11:37:48;;;;;;;7.97;4.50;;;11.00;99.90;;;;;;5027645;28;20410;-67
2022/04/06 11:40:16;;;;;;;5.93;4.50;;;10.90;99.90;;;;;;5027737;28;20491;-67
2022/04/06 11:42:46;;;;;;;4.10;3.70;;;10.90;99.90;;;;;;5028701;28;20422;-67
2022/04/06 11:45:11;;;;;;;6.10;3.97;;;10.90;99.90;;;;;;5028158;28;20446;-67
2022/04/06 11:47:38;;;;;;;4.63;4.00;;;10.90;99.90;;;;;;5028283;28;21069;-67
2022/04/06 11:50:10;;;;;;;5.40;3.93;;;10.90;99.90;;;;;;5033220;28;20465;-68
2022/04/06 11:52:40;;;;;;;5.60;4.40;;;10.90;99.90;;;;;;5042488;28;20414;-68
2022/04/06 11:55:07;;;;;;;4.70;3.30;;;10.90;99.90;;;;;;5045550;28;20434;-68
2022/04/06 11:57:42;;;;;;;3.85;3.50;;;11.00;99.90;;;;;;5041329;28;20424;-68
2022/04/06 12:00:09;;;;;;;4.97;3.10;;;11.00;99.90;;;;;;5035099;28;20194;-68
2022/04/06 12:02:55;;;;;;;3.70;3.20;;;11.00;99.90;;;;;;5039977;28;20492;-67
2022/04/06 12:05:23;;;;;;;5.07;2.70;;;11.00;99.90;;;;;;5037103;28;20997;-68
2022/04/06 12:08:06;;;;;;;4.13;2.57;;;11.10;99.90;;;;;;5015253;28;20441;-67
2022/04/06 12:10:32;;;;;;;2.77;2.57;;;11.10;99.90;;;;;;5032036;28;20922;-66
2022/04/06 12:12:58;;;;;;;3.13;2.90;;;11.20;99.90;;;;;;5031464;28;20402;-67
2022/04/06 12:15:24;;;;;;;4.80;4.20;;;11.10;99.90;;;;;;5031026;28;20448;-68
2022/04/06 12:17:49;;;;;;;4.03;3.57;;;11.10;99.90;;;;;;5031179;28;20178;-69
2022/04/06 12:20:26;;;;;;;4.17;3.60;;;11.10;99.90;;;;;;5030506;28;20254;-67
2022/04/06 12:23:08;;;;;;;3.17;2.80;;;11.10;99.90;;;;;;5031040;28;20195;-67
2022/04/06 12:25:35;;;;;;;4.77;3.17;;;11.20;99.90;;;;;;5031207;28;20498;-67
2022/04/06 12:28:13;;;;;;;5.23;3.47;;;11.10;99.90;;;;;;5031417;28;20416;-67
2022/04/06 12:30:51;;;;;;;6.13;3.90;;;11.20;99.90;;;;;;5030835;28;20479;-67
2022/04/06 12:33:32;;;;;;;3.97;3.40;;;11.20;99.90;;;;;;5030871;28;20918;-67
2022/04/06 12:36:18;;;;;;;4.87;4.47;;;11.20;99.90;;;;;;5012747;28;20449;-67
2022/04/06 12:39:15;;;;;;;4.50;4.00;;;11.20;99.90;;;;;;5031217;28;20719;-67
2022/04/06 12:42:01;;;;;;;3.77;3.47;;;11.10;99.90;;;;;;5012966;28;20439;-68
2022/04/06 12:44:28;;;;;;;6.67;4.10;;;11.10;99.90;;;;;;5031112;28;21088;-67
2022/04/06 12:46:54;;;;;;;6.37;3.93;;;11.10;99.90;;;;;;5030906;28;20527;-67
2022/04/06 12:49:22;;;;;;;2.83;2.53;;;11.10;99.90;;;;;;5030578;28;20420;-67
2022/04/06 12:52:03;;;;;;;5.17;3.40;;;11.10;99.90;;;;;;5031188;28;20986;-66
2022/04/06 12:54:33;;;;;;;2.83;2.63;;;11.10;99.90;;;;;;5031338;28;20765;-69
2022/04/06 12:57:13;;;;;;;2.93;2.50;;;11.10;99.90;;;;;;5030420;28;20756;-68
2022/04/06 13:00:09;;;;;;;3.93;3.10;;;11.10;99.90;;;;;;5030807;28;20835;-68
2022/04/06 13:02:36;;;;;;;3.40;3.10;;;11.20;99.90;;;;;;5012345;28;20420;-67
2022/04/06 13:05:08;;;;;;;4.90;3.20;;;11.20;99.90;;;;;;5029902;28;21245;-68
2022/04/06 13:07:36;;;;;;;5.07;3.10;;;11.10;99.90;;;;;;5031279;28;20480;-68